Birmingham-Shuttlesworth International Airport
KBHM : now visible

Airfield :











YOU CAN JOIN US ON...

 
LOGIN :

Register | Disclaimer

   EN    FR    IT 

 









Legend :    VFR   Marginal VFR   IFR   Intensive IFR   Very Intensive IFR
Visi :
Ceiling :
>= 8 km
>= 3000ft
5 to 8 km
1000 to 3000 ft
1500m to 5 km
500 to 1000 ft
800 to 1500m
200 to 500 ft
< 800m
< 200 ft
Symbols :   Thunderstorms  Fog  Heavy snow  Heavy precipitations  Wind > 20 kt






- Airport Elevation : 650 ft
- IATA code : BHM


KBHM - Birmingham-Shuttlesworth International

CURRENT METAR :
  • 202153Z 27011KT 10SM SCT040 BKN050 BKN065 31/21 A2991 RMK AO2 SLP120 T03110211

EXPIRED METARs :
  • 202053Z 22007KT 10SM SCT042 SCT070 30/21 A2991 RMK AO2 SLP119 T03000211 58012
  • 201953Z 25008KT 10SM BKN041 BKN070 30/21 A2992 RMK AO2 SLP124 T03000206

TAF KBHM
Valid from the 20 at 18:00 until the 21 at 18:00 UTC


201732Z 2018/2118 31007KT P6SM BKN035
FM210100 22005KT P6SM FEW250
FM210700 22006KT P6SM BKN015
FM210900 22006KT P6SM BKN009
FM211400 23007KT P6SM BKN015
PROB30 2114/2117 4SM TSRA BR OVC008CB
KZTL FIR / North America



MET'MAP, your aeronautical weather chart ! - Copyright ORBIFLY December 2007 - Disclaimer

ORBIFLY MET'MAP TEAM :

Programming & Development : Alexandra Zaïnal
Concept & original design : Baudouin d'Aumeries
Assistance for programming : Marc-Olivier Méhu
Technical & hardware support : Manuel Goepfert

Contact : metmap@orbifly.com




SOURCES & CREDITS :

   NOAA       Earth
Advisory